Time;durP1;ratioP1;P1;durP2;ratioP2;P2;SDS_P1;SDS_P2;PMS_P1;PMS_P2;Temp;Humidity;BMP_temperature;BMP_pressure;BME280_temperature;BME280_humidity;BME280_pressure;Samples;Min_cycle;Max_cycle;Signal;HPM_P1;HPM_P2
2021/03/03 00:00:06;;;;;;;23.40;13.63;;;5.50;99.90;;;;;;5052323;28;20229;-58
2021/03/03 00:02:32;;;;;;;21.57;14.10;;;5.50;99.90;;;;;;5052718;28;20209;-59
2021/03/03 00:04:58;;;;;;;22.13;13.80;;;5.40;99.90;;;;;;5052379;28;20233;-59
2021/03/03 00:07:25;;;;;;;24.37;14.53;;;5.50;99.90;;;;;;5052745;28;20429;-58
2021/03/03 00:09:51;;;;;;;24.83;15.20;;;5.40;99.90;;;;;;5052312;28;20452;-58
2021/03/03 00:12:17;;;;;;;22.63;13.57;;;5.40;99.90;;;;;;5052653;28;20716;-58
2021/03/03 00:14:43;;;;;;;22.77;14.10;;;5.30;99.90;;;;;;5052046;28;20225;-57
2021/03/03 00:17:10;;;;;;;23.90;14.33;;;5.20;99.90;;;;;;5052352;28;20209;-58
2021/03/03 00:19:36;;;;;;;27.07;15.47;;;5.10;99.90;;;;;;5052208;28;20222;-59
2021/03/03 00:22:02;;;;;;;27.70;16.83;;;5.00;99.90;;;;;;5052364;28;20206;-58
2021/03/03 00:24:29;;;;;;;25.83;16.10;;;5.00;99.90;;;;;;5052021;28;20260;-59
2021/03/03 00:26:55;;;;;;;25.97;17.00;;;5.00;99.90;;;;;;5052031;28;20584;-58
2021/03/03 00:29:22;;;;;;;25.53;16.77;;;5.00;99.90;;;;;;5052233;28;20212;-58
2021/03/03 00:31:48;;;;;;;20.80;14.27;;;5.00;99.90;;;;;;5052338;28;20209;-58
2021/03/03 00:34:14;;;;;;;22.37;15.47;;;5.00;99.90;;;;;;5051915;28;20232;-59
2021/03/03 00:36:40;;;;;;;24.60;15.93;;;5.00;99.90;;;;;;5052172;28;20206;-59
2021/03/03 00:39:06;;;;;;;22.80;14.70;;;5.00;99.90;;;;;;5052183;28;20228;-59
2021/03/03 00:41:33;;;;;;;21.57;15.00;;;5.00;99.90;;;;;;5052459;28;20271;-59
2021/03/03 00:44:00;;;;;;;22.33;15.30;;;5.00;99.90;;;;;;5051731;28;20575;-58
2021/03/03 00:46:26;;;;;;;22.83;15.40;;;4.90;99.90;;;;;;5052043;28;20262;-59
2021/03/03 00:48:52;;;;;;;24.00;15.07;;;4.80;99.90;;;;;;5052089;28;20209;-59
2021/03/03 00:51:18;;;;;;;25.37;15.03;;;4.80;99.90;;;;;;5051700;28;20239;-58
2021/03/03 00:53:45;;;;;;;24.43;14.83;;;4.70;99.90;;;;;;5051411;28;20281;-58
2021/03/03 00:56:11;;;;;;;25.40;15.33;;;4.70;99.90;;;;;;5052016;28;20233;-58
2021/03/03 00:58:38;;;;;;;21.93;13.87;;;4.60;99.90;;;;;;5051454;28;20666;-59
2021/03/03 01:01:05;;;;;;;20.37;14.13;;;4.60;99.90;;;;;;5051719;28;20234;-59
2021/03/03 01:03:31;;;;;;;22.57;13.90;;;4.60;99.90;;;;;;5051422;28;20226;-58
2021/03/03 01:05:57;;;;;;;20.53;13.20;;;4.60;99.90;;;;;;5051573;28;20205;-58
2021/03/03 01:08:23;;;;;;;23.80;13.83;;;4.50;99.90;;;;;;5051428;28;20206;-58
2021/03/03 01:10:49;;;;;;;23.20;13.90;;;4.50;99.90;;;;;;5051489;28;20197;-57
2021/03/03 01:13:16;;;;;;;21.00;13.50;;;4.50;99.90;;;;;;5051479;28;20234;-58
2021/03/03 01:15:43;;;;;;;24.77;14.50;;;4.50;99.90;;;;;;5051240;28;20202;-58
2021/03/03 01:18:09;;;;;;;20.77;13.53;;;4.50;99.90;;;;;;5051277;28;20209;-59
2021/03/03 01:20:35;;;;;;;23.53;14.30;;;4.50;99.90;;;;;;5051150;28;20221;-59
2021/03/03 01:23:01;;;;;;;22.03;14.67;;;4.50;99.90;;;;;;5051022;28;20696;-59
2021/03/03 01:25:28;;;;;;;20.50;13.47;;;4.50;99.90;;;;;;5051181;28;20206;-59
2021/03/03 01:27:54;;;;;;;19.63;13.50;;;4.50;99.90;;;;;;5050607;28;20212;-58
2021/03/03 01:30:20;;;;;;;21.93;13.93;;;4.40;99.90;;;;;;5051218;28;20635;-58
2021/03/03 01:32:47;;;;;;;20.47;14.47;;;4.30;99.90;;;;;;5051256;28;20206;-58
2021/03/03 01:35:14;;;;;;;22.27;13.77;;;4.10;99.90;;;;;;5050915;28;20225;-59
2021/03/03 01:37:41;;;;;;;20.73;13.53;;;4.10;99.90;;;;;;5051164;28;20205;-59
2021/03/03 01:40:08;;;;;;;23.90;14.23;;;4.00;99.90;;;;;;5051176;28;20226;-59
2021/03/03 01:42:35;;;;;;;23.40;13.93;;;4.00;99.90;;;;;;5051048;28;20209;-58
2021/03/03 01:45:01;;;;;;;21.70;14.53;;;3.90;99.90;;;;;;5050767;28;20729;-58
2021/03/03 01:47:28;;;;;;;20.20;14.50;;;3.90;99.90;;;;;;5050939;28;20300;-59
2021/03/03 01:49:55;;;;;;;23.17;14.43;;;4.00;99.90;;;;;;5050788;28;20205;-59
2021/03/03 01:52:23;;;;;;;21.27;14.50;;;4.00;99.90;;;;;;5051374;28;20705;-59
2021/03/03 01:54:50;;;;;;;22.60;14.57;;;4.10;99.90;;;;;;5050792;28;20233;-59
2021/03/03 01:57:17;;;;;;;23.43;15.17;;;4.10;99.90;;;;;;5050967;28;20205;-59
2021/03/03 01:59:43;;;;;;;20.97;14.63;;;4.20;99.90;;;;;;5050860;28;20222;-59
2021/03/03 02:02:09;;;;;;;24.20;15.23;;;4.10;99.90;;;;;;5050823;28;20206;-59
2021/03/03 02:04:36;;;;;;;22.30;14.63;;;4.20;99.90;;;;;;5050572;28;20230;-59
2021/03/03 02:07:11;;;;;;;24.80;15.00;;;4.20;99.90;;;;;;5050675;28;20575;-59
2021/03/03 02:09:45;;;;;;;22.17;15.10;;;4.10;99.90;;;;;;5050798;28;20224;-59
2021/03/03 02:12:16;;;;;;;26.27;15.57;;;4.10;99.90;;;;;;5050789;28;20214;-58
2021/03/03 02:14:48;;;;;;;26.73;15.00;;;4.20;99.90;;;;;;5050671;28;20230;-59
2021/03/03 02:17:15;;;;;;;23.10;14.73;;;4.20;99.90;;;;;;5051346;28;20213;-59
2021/03/03 02:19:42;;;;;;;23.00;15.00;;;4.30;99.90;;;;;;5050543;28;20275;-59
2021/03/03 02:22:21;;;;;;;23.07;15.77;;;4.20;99.90;;;;;;5050683;28;20408;-58
2021/03/03 02:24:52;;;;;;;23.70;15.27;;;4.20;99.90;;;;;;5050429;28;20290;-59
2021/03/03 02:27:21;;;;;;;22.93;15.27;;;4.20;99.90;;;;;;5050441;28;20254;-59
2021/03/03 02:29:49;;;;;;;25.70;14.77;;;4.30;99.90;;;;;;5050288;28;20201;-58
2021/03/03 02:32:18;;;;;;;24.20;14.93;;;4.30;99.90;;;;;;5050650;28;20210;-58
2021/03/03 02:34:45;;;;;;;22.37;14.93;;;4.20;99.90;;;;;;5050375;28;20221;-57
2021/03/03 02:37:13;;;;;;;23.50;15.77;;;4.30;99.90;;;;;;5050726;28;20283;-58
2021/03/03 02:39:39;;;;;;;22.37;16.10;;;4.30;99.90;;;;;;5053898;28;20232;-59
2021/03/03 02:42:06;;;;;;;21.43;14.93;;;4.30;99.90;;;;;;5054129;28;20206;-58
2021/03/03 02:44:34;;;;;;;22.70;14.83;;;4.30;99.90;;;;;;5054084;28;20574;-58
2021/03/03 02:47:02;;;;;;;29.17;16.23;;;4.40;99.90;;;;;;5054142;28;20213;-59
2021/03/03 02:49:29;;;;;;;22.70;15.40;;;4.50;99.90;;;;;;5054010;28;20213;-58
2021/03/03 02:51:55;;;;;;;22.40;15.80;;;4.40;99.90;;;;;;5054014;28;20206;-58
2021/03/03 02:54:21;;;;;;;25.17;16.47;;;4.40;99.90;;;;;;5077685;22;20225;-62
2021/03/03 02:56:48;;;;;;;23.63;15.30;;;4.40;99.90;;;;;;5054689;28;20213;-60
2021/03/03 02:59:25;;;;;;;27.10;15.60;;;4.50;99.90;;;;;;5054961;28;20263;-59
2021/03/03 03:01:54;;;;;;;23.93;16.10;;;4.50;99.90;;;;;;5054811;28;20201;-59
2021/03/03 03:04:23;;;;;;;22.63;16.27;;;4.50;99.90;;;;;;5054441;28;20643;-61
2021/03/03 03:06:50;;;;;;;24.37;16.47;;;4.50;99.90;;;;;;5054183;28;20209;-62
2021/03/03 03:09:19;;;;;;;25.73;16.10;;;4.60;99.90;;;;;;5053529;28;20213;-59
2021/03/03 03:11:47;;;;;;;24.23;16.63;;;4.70;99.90;;;;;;5054099;28;20208;-59
2021/03/03 03:14:15;;;;;;;22.80;15.07;;;4.70;99.90;;;;;;5054073;28;20236;-60
2021/03/03 03:16:44;;;;;;;24.27;17.07;;;4.70;99.90;;;;;;5053745;28;20297;-59
2021/03/03 03:19:15;;;;;;;24.27;15.57;;;4.80;99.90;;;;;;5053834;28;20236;-60
2021/03/03 03:21:48;;;;;;;22.90;15.47;;;4.90;99.90;;;;;;5053881;28;20213;-60
2021/03/03 03:24:17;;;;;;;27.20;16.10;;;5.00;99.90;;;;;;5053417;28;20748;-60
2021/03/03 03:26:44;;;;;;;24.77;15.47;;;5.00;99.90;;;;;;5053446;28;20209;-59
2021/03/03 03:29:11;;;;;;;26.27;15.13;;;5.10;99.90;;;;;;5053467;28;20684;-61
2021/03/03 03:31:39;;;;;;;22.70;15.63;;;5.10;99.90;;;;;;5053779;28;20201;-60
2021/03/03 03:34:07;;;;;;;22.50;15.07;;;5.10;99.90;;;;;;5053958;28;20225;-61
2021/03/03 03:36:36;;;;;;;24.67;15.10;;;5.10;99.90;;;;;;5053778;28;20209;-61
2021/03/03 03:39:04;;;;;;;22.07;16.43;;;5.10;99.90;;;;;;5053631;28;20201;-60
2021/03/03 03:41:33;;;;;;;24.70;17.27;;;5.20;99.90;;;;;;5054182;28;20266;-61
2021/03/03 03:44:00;;;;;;;22.60;16.40;;;5.10;99.90;;;;;;5053150;28;20225;-60
2021/03/03 03:46:28;;;;;;;25.13;17.03;;;5.00;99.90;;;;;;5053427;28;20209;-61
2021/03/03 03:48:55;;;;;;;22.23;15.53;;;5.10;99.90;;;;;;5053241;28;20220;-63
2021/03/03 03:51:21;;;;;;;25.97;16.87;;;5.00;99.90;;;;;;5053052;28;20209;-61
2021/03/03 03:53:49;;;;;;;23.53;16.27;;;5.00;99.90;;;;;;5054985;28;20237;-60
2021/03/03 03:56:15;;;;;;;23.50;15.97;;;5.00;99.90;;;;;;5055094;28;20206;-60
2021/03/03 03:58:41;;;;;;;22.10;15.97;;;5.00;99.90;;;;;;5054583;28;20210;-61
2021/03/03 04:01:07;;;;;;;22.13;15.83;;;5.10;99.90;;;;;;5054089;28;20252;-61
2021/03/03 04:03:34;;;;;;;26.00;16.23;;;5.10;99.90;;;;;;5053661;28;20725;-61
2021/03/03 04:06:01;;;;;;;26.53;17.93;;;5.00;99.90;;;;;;5054204;28;20213;-60
2021/03/03 04:08:27;;;;;;;25.40;16.93;;;5.10;99.90;;;;;;5054392;28;20692;-61
2021/03/03 04:10:54;;;;;;;22.97;15.90;;;5.10;99.90;;;;;;5055007;28;20210;-61
2021/03/03 04:13:20;;;;;;;26.90;17.20;;;5.20;99.90;;;;;;5054390;28;20202;-60
2021/03/03 04:15:46;;;;;;;22.77;17.23;;;5.30;99.90;;;;;;5053610;28;20210;-61
2021/03/03 04:18:14;;;;;;;32.07;21.27;;;5.30;99.90;;;;;;5054603;28;20588;-61
2021/03/03 04:20:41;;;;;;;23.73;17.10;;;5.40;99.90;;;;;;5053785;28;20228;-61
2021/03/03 04:23:08;;;;;;;21.07;15.20;;;5.50;99.90;;;;;;5053241;28;20407;-62
2021/03/03 04:25:35;;;;;;;26.23;15.03;;;5.60;99.90;;;;;;5053012;28;20705;-62
2021/03/03 04:28:02;;;;;;;20.73;13.97;;;5.60;99.90;;;;;;5053122;28;20210;-60
2021/03/03 04:30:28;;;;;;;24.40;15.03;;;5.70;99.90;;;;;;5053035;28;20593;-61
2021/03/03 04:32:54;;;;;;;20.77;13.33;;;5.60;99.90;;;;;;5053124;28;20267;-60
2021/03/03 04:35:21;;;;;;;21.60;14.27;;;5.50;99.90;;;;;;5053183;28;20287;-60
2021/03/03 04:37:47;;;;;;;26.50;13.83;;;5.40;99.90;;;;;;5052855;28;20256;-61
2021/03/03 04:40:14;;;;;;;24.60;15.33;;;5.30;99.90;;;;;;5052746;28;20229;-60
2021/03/03 04:42:40;;;;;;;22.10;15.23;;;5.20;99.90;;;;;;5053054;28;20205;-61
2021/03/03 04:45:09;;;;;;;21.63;14.67;;;5.20;99.90;;;;;;5052329;28;20245;-61
2021/03/03 04:47:36;;;;;;;24.57;15.47;;;5.10;99.90;;;;;;5052199;28;20206;-62
2021/03/03 04:50:04;;;;;;;23.83;15.50;;;5.10;99.90;;;;;;5052140;28;20202;-61
2021/03/03 04:52:30;;;;;;;27.00;16.13;;;5.00;99.90;;;;;;5052145;28;20275;-62
2021/03/03 04:54:56;;;;;;;24.60;15.57;;;5.00;99.90;;;;;;5051735;28;20237;-60
2021/03/03 04:57:23;;;;;;;23.23;15.63;;;5.00;99.90;;;;;;5051631;28;20205;-61
2021/03/03 04:59:49;;;;;;;23.53;14.77;;;5.00;99.90;;;;;;5051914;28;20226;-61
2021/03/03 05:02:16;;;;;;;23.67;14.67;;;5.00;99.90;;;;;;5052117;28;20632;-60
2021/03/03 05:04:44;;;;;;;22.43;15.47;;;5.00;99.90;;;;;;5053391;28;20221;-60
2021/03/03 05:07:10;;;;;;;26.60;16.20;;;4.90;99.90;;;;;;5051905;28;20209;-61
2021/03/03 05:09:36;;;;;;;22.23;15.17;;;4.90;99.90;;;;;;5052109;28;20672;-61
2021/03/03 05:12:04;;;;;;;26.00;15.77;;;4.90;99.90;;;;;;5051850;28;20482;-61
2021/03/03 05:14:30;;;;;;;25.57;16.33;;;4.90;99.90;;;;;;5052107;28;20271;-61
2021/03/03 05:16:56;;;;;;;27.20;18.20;;;4.80;99.90;;;;;;5053143;28;20201;-61
2021/03/03 05:19:23;;;;;;;23.40;16.50;;;4.70;99.90;;;;;;5052729;28;20205;-61
2021/03/03 05:21:49;;;;;;;27.97;17.27;;;4.60;99.90;;;;;;5052098;28;20289;-61
2021/03/03 05:24:15;;;;;;;25.30;16.73;;;4.70;99.90;;;;;;5052080;28;20232;-65
2021/03/03 05:26:42;;;;;;;28.33;17.80;;;4.80;99.90;;;;;;5051915;28;20206;-61
2021/03/03 05:29:08;;;;;;;24.60;16.87;;;4.80;99.90;;;;;;5051550;28;20267;-61
2021/03/03 05:31:35;;;;;;;28.40;16.63;;;4.90;99.90;;;;;;5051343;28;20216;-61
2021/03/03 05:34:01;;;;;;;25.93;17.10;;;4.90;99.90;;;;;;5050966;28;20740;-60
2021/03/03 05:36:28;;;;;;;25.87;16.23;;;4.90;99.90;;;;;;5051207;28;20201;-61
2021/03/03 05:38:54;;;;;;;20.93;14.23;;;5.00;99.90;;;;;;5051485;28;20205;-61
2021/03/03 05:41:22;;;;;;;24.07;14.90;;;5.00;99.90;;;;;;5051873;28;20233;-61
2021/03/03 05:43:49;;;;;;;24.60;15.80;;;5.00;99.90;;;;;;5051375;28;20317;-61
2021/03/03 05:46:15;;;;;;;22.30;14.67;;;5.00;99.90;;;;;;5051373;28;20284;-60
2021/03/03 05:48:43;;;;;;;20.43;15.27;;;5.00;99.90;;;;;;5051009;28;20208;-60
2021/03/03 05:51:10;;;;;;;24.20;15.50;;;4.90;99.90;;;;;;5051147;28;20201;-60
2021/03/03 05:53:38;;;;;;;26.40;16.03;;;4.90;99.90;;;;;;5050724;28;20201;-60
2021/03/03 05:56:06;;;;;;;23.87;16.00;;;4.80;99.90;;;;;;5051044;28;20704;-60
2021/03/03 05:58:33;;;;;;;26.10;16.50;;;4.90;99.90;;;;;;5051198;28;20202;-60
2021/03/03 06:01:01;;;;;;;30.77;19.70;;;4.90;99.90;;;;;;5051368;28;20416;-60
2021/03/03 06:03:28;;;;;;;22.13;15.87;;;4.90;99.90;;;;;;5051030;28;20232;-60
2021/03/03 06:05:55;;;;;;;23.67;15.53;;;4.90;99.90;;;;;;5051221;28;20215;-59
2021/03/03 06:08:22;;;;;;;21.23;15.57;;;5.00;99.90;;;;;;5050927;28;20212;-61
2021/03/03 06:10:50;;;;;;;25.03;15.93;;;5.00;99.90;;;;;;5051424;28;20202;-61
2021/03/03 06:13:17;;;;;;;26.43;17.53;;;5.00;99.90;;;;;;5053852;28;20209;-60
2021/03/03 06:15:44;;;;;;;25.13;15.03;;;5.00;99.90;;;;;;5057913;28;20221;-61
2021/03/03 06:18:12;;;;;;;23.97;16.13;;;5.10;99.90;;;;;;5057598;28;20242;-61
2021/03/03 06:20:39;;;;;;;23.23;15.67;;;5.10;99.90;;;;;;5057300;28;20228;-61
2021/03/03 06:23:13;;;;;;;27.27;17.60;;;5.10;99.90;;;;;;5057829;28;20205;-61
2021/03/03 06:25:39;;;;;;;37.27;21.90;;;5.20;99.90;;;;;;5056592;28;20275;-61
2021/03/03 06:28:07;;;;;;;25.10;17.20;;;5.20;99.90;;;;;;5055999;28;20209;-61
2021/03/03 06:30:34;;;;;;;26.93;17.10;;;5.30;99.90;;;;;;5055145;28;20206;-61
2021/03/03 06:33:01;;;;;;;24.33;16.17;;;5.30;99.90;;;;;;5055181;28;20576;-61
2021/03/03 06:35:39;;;;;;;24.47;14.77;;;5.40;99.90;;;;;;5054709;28;20236;-61
2021/03/03 06:38:07;;;;;;;26.10;15.77;;;5.40;99.90;;;;;;5055152;28;20267;-61
2021/03/03 06:40:34;;;;;;;27.27;15.00;;;5.40;99.90;;;;;;5055509;28;20225;-60
2021/03/03 06:43:21;;;;;;;22.53;14.83;;;5.40;99.90;;;;;;5056137;28;20213;-61
2021/03/03 06:45:48;;;;;;;22.50;15.10;;;5.40;99.90;;;;;;5055560;28;20288;-61
2021/03/03 06:48:14;;;;;;;20.80;14.00;;;5.40;99.90;;;;;;5055729;28;20210;-61
2021/03/03 06:50:41;;;;;;;22.33;15.73;;;5.50;99.90;;;;;;5055605;28;20206;-61
2021/03/03 06:53:08;;;;;;;24.13;15.37;;;5.60;99.90;;;;;;5055579;28;20206;-61
2021/03/03 06:55:47;;;;;;;23.13;15.93;;;5.60;99.90;;;;;;5055225;28;20236;-61
2021/03/03 06:58:28;;;;;;;21.73;15.10;;;5.70;99.90;;;;;;5054970;28;20214;-61
2021/03/03 07:00:55;;;;;;;27.33;15.80;;;5.80;99.90;;;;;;5055707;28;20244;-61
2021/03/03 07:03:24;;;;;;;28.43;17.17;;;5.80;99.90;;;;;;5055750;28;20209;-60
2021/03/03 07:05:50;;;;;;;24.13;16.53;;;5.90;99.90;;;;;;5055410;28;20677;-61
2021/03/03 07:08:17;;;;;;;24.83;16.73;;;6.00;99.90;;;;;;5054875;28;20214;-61
2021/03/03 07:10:43;;;;;;;25.83;16.60;;;6.10;99.90;;;;;;5054927;28;20248;-61
2021/03/03 07:13:10;;;;;;;24.17;17.17;;;6.20;99.90;;;;;;5055298;28;20209;-60
2021/03/03 07:15:37;;;;;;;27.63;16.47;;;6.30;99.90;;;;;;5054661;28;20234;-60
2021/03/03 07:18:03;;;;;;;23.27;16.53;;;6.40;99.90;;;;;;5054661;28;20205;-61
2021/03/03 07:20:29;;;;;;;25.07;18.10;;;6.50;99.90;;;;;;5054907;28;20221;-59
2021/03/03 07:22:57;;;;;;;28.60;17.20;;;6.60;99.90;;;;;;5054718;28;20247;-60
2021/03/03 07:25:23;;;;;;;29.90;20.03;;;6.70;99.90;;;;;;5053104;28;20701;-61
2021/03/03 07:27:51;;;;;;;29.97;19.13;;;6.70;99.90;;;;;;5054880;28;20221;-61
2021/03/03 07:30:19;;;;;;;29.27;20.17;;;6.70;99.90;;;;;;5054682;28;20270;-61
2021/03/03 07:32:47;;;;;;;35.87;23.77;;;6.80;99.90;;;;;;5054447;28;20259;-60
2021/03/03 07:35:13;;;;;;;27.50;19.67;;;6.80;99.90;;;;;;5054217;28;20226;-60
2021/03/03 07:37:41;;;;;;;28.90;18.43;;;7.00;99.90;;;;;;5054299;28;20217;-61
2021/03/03 07:40:09;;;;;;;26.63;18.37;;;7.00;99.90;;;;;;5054558;28;20221;-60
2021/03/03 07:42:37;;;;;;;29.57;18.77;;;7.00;99.90;;;;;;5054664;28;20476;-60
2021/03/03 07:45:07;;;;;;;29.80;18.17;;;7.10;99.90;;;;;;5054430;28;20230;-60
2021/03/03 07:47:36;;;;;;;26.70;18.80;;;7.30;99.90;;;;;;5054401;28;20213;-61
2021/03/03 07:50:07;;;;;;;27.93;18.43;;;7.50;99.90;;;;;;5054686;28;20206;-63
2021/03/03 07:52:35;;;;;;;32.30;19.30;;;7.50;99.90;;;;;;5053918;28;20205;-58
2021/03/03 07:55:02;;;;;;;26.60;19.50;;;7.60;99.90;;;;;;5053838;28;20233;-60
2021/03/03 07:57:29;;;;;;;34.57;19.57;;;7.70;99.90;;;;;;5054528;28;20209;-60
2021/03/03 07:59:56;;;;;;;34.83;25.70;;;7.80;99.90;;;;;;5053748;28;20233;-57
2021/03/03 08:02:23;;;;;;;29.23;19.50;;;8.10;99.90;;;;;;5053069;28;20209;-57
2021/03/03 08:05:01;;;;;;;29.27;19.13;;;8.20;99.90;;;;;;5052875;28;20713;-57
2021/03/03 08:07:28;;;;;;;25.43;18.27;;;8.40;99.90;;;;;;5053128;28;20205;-57
2021/03/03 08:10:28;;;;;;;25.77;16.73;;;8.60;99.90;;;;;;5053042;28;20584;-57
2021/03/03 08:13:06;;;;;;;25.63;17.50;;;8.80;99.90;;;;;;5053460;28;20205;-57
2021/03/03 08:15:37;;;;;;;28.57;18.63;;;8.90;99.90;;;;;;5053124;28;20233;-57
2021/03/03 08:18:24;;;;;;;29.13;17.00;;;9.10;99.90;;;;;;5053408;28;20211;-58
2021/03/03 08:20:51;;;;;;;27.83;16.97;;;9.30;99.90;;;;;;5052866;28;20601;-58
2021/03/03 08:23:40;;;;;;;29.63;17.33;;;9.40;99.90;;;;;;5053130;28;20210;-58
2021/03/03 08:26:11;;;;;;;24.47;17.40;;;9.60;99.90;;;;;;5053124;28;20483;-58
2021/03/03 08:28:38;;;;;;;26.83;17.93;;;9.80;99.90;;;;;;5052318;28;20210;-58
2021/03/03 08:31:30;;;;;;;22.67;16.40;;;9.90;99.90;;;;;;5052448;28;20216;-58
2021/03/03 08:33:58;;;;;;;25.50;17.07;;;9.90;99.90;;;;;;5051955;28;20256;-58
2021/03/03 08:36:49;;;;;;;27.77;18.17;;;10.10;99.90;;;;;;5051887;28;20213;-58
2021/03/03 08:39:30;;;;;;;24.77;17.97;;;10.20;99.90;;;;;;5052001;28;20275;-58
2021/03/03 08:41:57;;;;;;;28.53;17.27;;;10.30;99.90;;;;;;5051936;28;20324;-58
2021/03/03 08:44:24;;;;;;;28.13;18.10;;;10.30;99.90;;;;;;5051850;28;20745;-58
2021/03/03 08:46:52;;;;;;;28.20;17.27;;;10.40;99.90;;;;;;5052005;28;20271;-58
2021/03/03 08:49:27;;;;;;;25.30;16.57;;;10.60;99.90;;;;;;5052330;28;20255;-58
2021/03/03 08:52:11;;;;;;;29.13;18.87;;;10.80;99.90;;;;;;5052072;28;20284;-58
2021/03/03 08:54:41;;;;;;;23.77;16.67;;;10.80;99.90;;;;;;5072624;22;20611;-58
2021/03/03 08:57:33;;;;;;;25.67;16.23;;;11.00;99.90;;;;;;5071575;28;20211;-57
2021/03/03 09:00:00;;;;;;;52.67;35.00;;;11.00;99.90;;;;;;5071322;28;20696;-58
2021/03/03 09:02:40;;;;;;;28.00;20.00;;;11.00;99.90;;;;;;5071526;28;20209;-58
2021/03/03 09:05:11;;;;;;;22.50;15.97;;;11.10;99.90;;;;;;5071264;28;20228;-58
2021/03/03 09:07:38;;;;;;;24.37;17.00;;;11.20;99.90;;;;;;5071220;28;20216;-58
2021/03/03 09:10:09;;;;;;;26.30;16.93;;;11.20;99.90;;;;;;5071787;28;20216;-58
2021/03/03 09:12:40;;;;;;;22.77;15.87;;;11.40;99.90;;;;;;5071278;28;20614;-60
2021/03/03 09:15:09;;;;;;;24.23;15.23;;;11.60;99.20;;;;;;5071128;28;20232;-61
2021/03/03 09:17:36;;;;;;;25.17;15.43;;;11.80;98.90;;;;;;5071505;28;20216;-62
2021/03/03 09:20:06;;;;;;;22.40;15.37;;;12.00;98.40;;;;;;5069118;28;20666;-62
2021/03/03 09:22:34;;;;;;;21.33;15.03;;;12.20;98.10;;;;;;5071746;28;20209;-62
2021/03/03 09:25:08;;;;;;;21.03;14.47;;;12.10;97.70;;;;;;5071095;28;20286;-62
2021/03/03 09:27:34;;;;;;;21.30;14.90;;;12.10;98.00;;;;;;5071189;28;20250;-60
2021/03/03 09:30:00;;;;;;;26.30;15.37;;;12.10;97.80;;;;;;5070511;28;20558;-61
2021/03/03 09:32:28;;;;;;;21.97;14.50;;;12.20;97.60;;;;;;5070734;28;20718;-62
2021/03/03 09:34:57;;;;;;;21.53;15.33;;;12.30;97.70;;;;;;5070764;28;20698;-61
2021/03/03 09:37:24;;;;;;;25.10;14.83;;;12.40;97.50;;;;;;5070827;28;20247;-61
2021/03/03 09:39:51;;;;;;;23.40;15.90;;;12.40;97.20;;;;;;5070723;28;20201;-60
2021/03/03 09:42:19;;;;;;;22.53;14.50;;;12.60;97.10;;;;;;5070987;28;20201;-62
2021/03/03 09:44:51;;;;;;;21.53;15.47;;;12.70;96.80;;;;;;5070589;28;20290;-61
2021/03/03 09:47:26;;;;;;;23.17;15.20;;;12.80;96.40;;;;;;5070327;28;20220;-61
2021/03/03 09:49:52;;;;;;;21.17;13.87;;;12.90;96.00;;;;;;5070551;28;20672;-61
2021/03/03 09:52:19;;;;;;;21.13;14.50;;;13.10;94.90;;;;;;5070914;28;20205;-61
2021/03/03 09:54:45;;;;;;;19.87;14.33;;;13.20;94.60;;;;;;5070632;28;20229;-62
2021/03/03 09:57:13;;;;;;;20.57;14.77;;;13.20;94.00;;;;;;5070888;28;20205;-61
2021/03/03 09:59:43;;;;;;;22.97;14.03;;;13.10;94.00;;;;;;5070329;28;20236;-62
2021/03/03 10:02:11;;;;;;;19.77;14.20;;;12.90;94.10;;;;;;5070986;28;20201;-62
2021/03/03 10:04:39;;;;;;;22.83;13.33;;;12.80;94.40;;;;;;5070566;28;20316;-61
2021/03/03 10:07:13;;;;;;;21.27;13.70;;;12.80;94.00;;;;;;5070407;28;20209;-61
2021/03/03 10:09:41;;;;;;;20.10;13.63;;;12.70;94.40;;;;;;5070286;28;20234;-61
2021/03/03 10:12:09;;;;;;;21.17;13.87;;;12.70;94.10;;;;;;5070384;28;20246;-61
2021/03/03 10:14:36;;;;;;;20.40;13.97;;;12.50;94.60;;;;;;5070518;28;20216;-62
2021/03/03 10:17:04;;;;;;;19.60;15.03;;;12.50;94.60;;;;;;5070679;28;20214;-61
2021/03/03 10:19:41;;;;;;;20.90;14.40;;;12.60;94.60;;;;;;5070231;28;20204;-62
2021/03/03 10:22:08;;;;;;;18.57;12.83;;;12.60;94.60;;;;;;5070886;28;20208;-62
2021/03/03 10:24:35;;;;;;;20.87;13.73;;;12.60;94.00;;;;;;5070187;28;20712;-62
2021/03/03 10:27:01;;;;;;;21.03;13.70;;;12.60;94.30;;;;;;5070709;28;20215;-62
2021/03/03 10:29:39;;;;;;;22.47;14.47;;;12.70;94.30;;;;;;5070454;28;20205;-61
2021/03/03 10:32:08;;;;;;;19.70;14.47;;;12.90;93.80;;;;;;5070406;28;20201;-61
2021/03/03 10:34:34;;;;;;;20.43;14.30;;;13.10;93.90;;;;;;5070646;28;20228;-62
2021/03/03 10:37:00;;;;;;;22.43;13.97;;;13.40;93.50;;;;;;5070697;28;20205;-60
2021/03/03 10:39:27;;;;;;;19.90;13.90;;;13.80;93.00;;;;;;5070480;28;20569;-60
2021/03/03 10:41:59;;;;;;;20.20;13.00;;;14.10;92.30;;;;;;5070363;28;20239;-61
2021/03/03 10:44:37;;;;;;;18.93;13.40;;;14.20;92.00;;;;;;5069953;28;20706;-61
2021/03/03 10:47:03;;;;;;;20.37;14.07;;;14.20;91.90;;;;;;5070686;28;20205;-63
2021/03/03 10:49:31;;;;;;;19.30;13.43;;;14.20;91.70;;;;;;5070031;28;20201;-61
2021/03/03 10:51:57;;;;;;;22.80;13.80;;;14.20;91.80;;;;;;5070420;28;20233;-61
2021/03/03 10:54:30;;;;;;;20.80;13.40;;;14.20;91.90;;;;;;5070130;28;20240;-63
2021/03/03 10:57:04;;;;;;;19.17;13.73;;;14.20;92.10;;;;;;5070292;28;20216;-61
2021/03/03 10:59:31;;;;;;;23.50;13.50;;;14.50;91.70;;;;;;5072231;28;20199;-61
2021/03/03 11:01:59;;;;;;;19.37;13.23;;;14.80;90.90;;;;;;5073837;28;20622;-63
2021/03/03 11:04:38;;;;;;;18.73;13.37;;;14.80;90.90;;;;;;5073488;28;20263;-62
2021/03/03 11:07:05;;;;;;;22.93;13.30;;;14.90;90.70;;;;;;5073807;28;20683;-62
2021/03/03 11:09:31;;;;;;;16.27;13.13;;;15.00;90.60;;;;;;5073743;28;20204;-60
2021/03/03 11:11:58;;;;;;;19.20;12.50;;;15.10;90.20;;;;;;5074004;28;20208;-63
2021/03/03 11:14:25;;;;;;;18.23;13.13;;;15.00;89.80;;;;;;5073378;28;20224;-60
2021/03/03 11:16:52;;;;;;;16.33;12.80;;;15.00;90.00;;;;;;5073547;28;20205;-58
2021/03/03 11:19:19;;;;;;;24.53;13.67;;;15.10;89.70;;;;;;5073318;28;20205;-60
2021/03/03 11:21:47;;;;;;;23.03;13.60;;;15.10;89.00;;;;;;5073713;28;20225;-61
2021/03/03 11:24:13;;;;;;;19.97;12.53;;;15.30;89.00;;;;;;5073333;28;20728;-60
2021/03/03 11:26:41;;;;;;;18.70;12.97;;;15.50;88.30;;;;;;5073194;28;20672;-60
2021/03/03 11:29:09;;;;;;;18.83;13.13;;;15.70;87.60;;;;;;5072940;28;20221;-58
2021/03/03 11:31:35;;;;;;;20.20;14.82;;;15.90;86.00;;;;;;5082270;28;20448;-60
2021/03/03 11:34:02;;;;;;;20.63;12.50;;;16.00;85.00;;;;;;5093249;28;20208;-58
2021/03/03 11:36:29;;;;;;;18.93;12.93;;;16.00;84.90;;;;;;5093185;28;20212;-59
2021/03/03 11:38:56;;;;;;;20.20;12.63;;;16.10;85.20;;;;;;5093229;28;20358;-60
2021/03/03 11:41:23;;;;;;;18.60;13.37;;;16.20;84.80;;;;;;5073225;28;20244;-57
2021/03/03 11:43:49;;;;;;;19.80;12.93;;;16.40;84.10;;;;;;5084384;28;20231;-57
2021/03/03 11:46:15;;;;;;;21.27;13.10;;;16.50;83.30;;;;;;5093137;28;20691;-57
2021/03/03 11:48:42;;;;;;;17.63;12.77;;;16.50;82.10;;;;;;5092822;28;20212;-56
2021/03/03 11:51:08;;;;;;;20.50;13.23;;;16.50;81.90;;;;;;5093237;28;20644;-56
2021/03/03 11:53:34;;;;;;;19.83;13.03;;;16.50;81.30;;;;;;5092818;28;20212;-58
2021/03/03 11:56:02;;;;;;;17.60;12.83;;;16.50;81.00;;;;;;5056591;28;20241;-58
2021/03/03 11:58:28;;;;;;;23.57;13.20;;;16.70;80.90;;;;;;5052172;28;20206;-57
2021/03/03 12:00:54;;;;;;;17.43;12.50;;;16.80;80.70;;;;;;5052439;28;20234;-58
2021/03/03 12:03:20;;;;;;;22.70;13.00;;;17.10;79.80;;;;;;5052740;28;20262;-60
2021/03/03 12:05:46;;;;;;;16.97;12.07;;;17.20;78.90;;;;;;5052634;28;20259;-59
2021/03/03 12:08:12;;;;;;;19.80;12.13;;;17.20;77.70;;;;;;5052367;28;20330;-61
2021/03/03 12:10:39;;;;;;;21.23;13.10;;;17.30;77.10;;;;;;5051885;28;20202;-60
2021/03/03 12:13:07;;;;;;;28.30;12.83;;;17.30;77.20;;;;;;5052061;28;20218;-61
2021/03/03 12:15:33;;;;;;;18.53;12.47;;;17.40;76.90;;;;;;5052099;28;20795;-60
2021/03/03 12:17:59;;;;;;;22.00;12.60;;;17.50;75.00;;;;;;5052382;28;20212;-61
2021/03/03 12:20:28;;;;;;;20.40;12.27;;;17.50;75.20;;;;;;5052321;28;20221;-61
2021/03/03 12:22:54;;;;;;;23.80;12.50;;;17.60;73.90;;;;;;5052477;28;20571;-62
2021/03/03 12:25:20;;;;;;;21.30;12.63;;;17.50;73.90;;;;;;5052017;28;20225;-61
2021/03/03 12:27:47;;;;;;;18.80;12.47;;;17.40;73.90;;;;;;5051921;28;20205;-61
2021/03/03 12:30:15;;;;;;;22.03;12.33;;;17.40;73.00;;;;;;5052444;28;20214;-61
2021/03/03 12:32:41;;;;;;;20.70;12.23;;;17.60;71.80;;;;;;5052329;28;20205;-59
2021/03/03 12:35:09;;;;;;;19.30;12.20;;;17.70;70.90;;;;;;5052194;28;20222;-59
2021/03/03 12:37:35;;;;;;;20.80;12.80;;;17.90;70.30;;;;;;5052006;28;20213;-61